createdAt,value
2023-02-14T00:01:15.164Z,24.65
2023-02-14T00:03:42.275Z,23.27
2023-02-14T00:06:12.940Z,24.55
2023-02-14T00:08:44.256Z,22.77
2023-02-14T00:11:13.055Z,24.88
2023-02-14T00:14:00.153Z,22.85
2023-02-14T00:16:27.320Z,20.88
2023-02-14T00:19:03.319Z,22.33
2023-02-14T00:21:32.477Z,24.77
2023-02-14T00:23:59.582Z,21.35
2023-02-14T00:26:26.661Z,22.50
2023-02-14T00:28:53.730Z,23.27
2023-02-14T00:31:20.967Z,21.30
2023-02-14T00:33:48.676Z,22.83
2023-02-14T00:36:17.716Z,21.00
2023-02-14T00:38:44.858Z,23.67
2023-02-14T00:41:19.154Z,22.98
2023-02-14T00:43:47.623Z,21.05
2023-02-14T00:46:15.772Z,22.67
2023-02-14T00:48:43.007Z,21.58
2023-02-14T00:51:11.094Z,21.58
2023-02-14T00:53:39.015Z,21.13
2023-02-14T00:56:07.093Z,22.13
2023-02-14T00:58:34.308Z,20.75
2023-02-14T01:01:01.802Z,21.73
2023-02-14T01:03:29.541Z,22.10
2023-02-14T01:05:57.560Z,22.20
2023-02-14T01:08:25.265Z,23.67
2023-02-14T01:10:52.939Z,23.50
2023-02-14T01:13:20.333Z,22.80
2023-02-14T01:15:50.154Z,23.02
2023-02-14T01:18:19.249Z,21.70
2023-02-14T01:20:48.939Z,23.40
2023-02-14T01:23:16.026Z,22.90
2023-02-14T01:25:43.109Z,23.63
2023-02-14T01:28:10.176Z,20.77
2023-02-14T01:30:37.360Z,21.80
2023-02-14T01:33:04.484Z,23.30
2023-02-14T01:35:37.711Z,21.42
2023-02-14T01:38:04.803Z,21.75
2023-02-14T01:40:31.939Z,20.40
2023-02-14T01:42:59.028Z,21.00
2023-02-14T01:45:26.773Z,21.20
2023-02-14T01:47:56.483Z,21.60
2023-02-14T01:50:33.496Z,21.95
2023-02-14T01:53:05.992Z,20.05
2023-02-14T01:55:41.243Z,19.13
2023-02-14T01:58:12.451Z,21.40
2023-02-14T02:00:59.487Z,21.05
2023-02-14T02:03:38.661Z,20.33
2023-02-14T02:06:17.610Z,21.65
2023-02-14T02:08:58.014Z,20.90
2023-02-14T02:11:26.139Z,19.23
2023-02-14T02:13:53.251Z,21.30
2023-02-14T02:17:02.967Z,21.13
2023-02-14T02:20:04.112Z,22.40
2023-02-14T02:23:08.552Z,19.92
2023-02-14T02:25:51.733Z,20.92
2023-02-14T02:28:56.156Z,22.13
2023-02-14T02:31:26.279Z,21.33
2023-02-14T02:34:11.816Z,19.98
2023-02-14T02:36:52.214Z,20.25
2023-02-14T02:39:49.129Z,19.50
2023-02-14T02:42:18.920Z,17.58
2023-02-14T02:45:05.506Z,18.15
2023-02-14T02:47:46.839Z,17.27
2023-02-14T02:50:38.699Z,17.55
2023-02-14T02:53:23.521Z,18.45
2023-02-14T02:56:28.782Z,17.90
2023-02-14T02:59:29.218Z,17.75
2023-02-14T03:02:06.596Z,17.65
2023-02-14T03:04:53.520Z,18.65
2023-02-14T03:07:37.170Z,18.27
2023-02-14T03:10:24.176Z,17.92
2023-02-14T03:13:16.308Z,19.20
2023-02-14T03:16:02.106Z,17.95
2023-02-14T03:18:57.086Z,16.05
2023-02-14T03:21:39.592Z,16.77
2023-02-14T03:24:32.606Z,15.70
2023-02-14T03:27:15.006Z,16.63
2023-02-14T03:29:51.697Z,17.02
2023-02-14T03:32:34.383Z,17.17
2023-02-14T03:35:12.726Z,17.45
2023-02-14T03:37:54.195Z,17.65
2023-02-14T03:40:27.389Z,18.10
2023-02-14T03:43:02.133Z,18.38
2023-02-14T03:45:34.614Z,16.63
2023-02-14T03:48:12.802Z,17.95
2023-02-14T03:50:43.321Z,17.25
2023-02-14T03:53:11.949Z,19.05
2023-02-14T03:55:55.416Z,16.75
2023-02-14T03:58:28.435Z,15.95
2023-02-14T04:01:02.003Z,16.53
2023-02-14T04:03:32.295Z,16.95
2023-02-14T04:06:00.504Z,17.27
2023-02-14T04:08:29.306Z,16.20
2023-02-14T04:11:00.138Z,19.40
2023-02-14T04:13:28.045Z,17.50
2023-02-14T04:15:55.297Z,16.48
2023-02-14T04:18:41.376Z,17.23
2023-02-14T04:21:08.586Z,16.60
2023-02-14T04:23:35.781Z,17.65
2023-02-14T04:26:04.205Z,17.33
2023-02-14T04:28:32.269Z,17.50
2023-02-14T04:31:05.159Z,16.67
2023-02-14T04:33:33.394Z,17.85
2023-02-14T04:36:00.841Z,16.63
2023-02-14T04:38:28.095Z,17.45
2023-02-14T04:40:55.332Z,16.85
2023-02-14T04:43:22.420Z,17.42
2023-02-14T04:45:49.557Z,17.60
2023-02-14T04:48:16.616Z,16.00
2023-02-14T04:50:43.758Z,17.73
2023-02-14T04:53:10.920Z,18.10
2023-02-14T04:55:38.045Z,16.73
2023-02-14T04:58:05.816Z,15.23
2023-02-14T05:00:33.040Z,18.73
2023-02-14T05:03:00.135Z,18.20
2023-02-14T05:05:27.241Z,17.63
2023-02-14T05:07:54.347Z,17.55
2023-02-14T05:10:21.433Z,15.80
2023-02-14T05:12:48.513Z,17.13
2023-02-14T05:15:15.663Z,16.65
2023-02-14T05:17:42.762Z,16.33
2023-02-14T05:20:10.147Z,16.08
2023-02-14T05:22:37.221Z,14.80
2023-02-14T05:25:04.530Z,15.15
2023-02-14T05:27:31.662Z,16.30
2023-02-14T05:29:58.799Z,14.52
2023-02-14T05:32:25.890Z,15.25
2023-02-14T05:34:52.961Z,15.05
2023-02-14T05:37:20.029Z,16.85
2023-02-14T05:39:47.200Z,16.98
2023-02-14T05:42:14.459Z,16.83
2023-02-14T05:44:41.528Z,17.10
2023-02-14T05:47:08.579Z,16.58
2023-02-14T05:49:36.026Z,16.20
2023-02-14T05:52:03.184Z,15.50
2023-02-14T05:54:30.317Z,17.52
2023-02-14T05:56:57.567Z,15.98
2023-02-14T05:59:24.612Z,15.40
2023-02-14T06:01:51.706Z,16.60
2023-02-14T06:04:18.789Z,15.43
2023-02-14T06:06:45.884Z,18.13
2023-02-14T06:09:13.551Z,15.48
2023-02-14T06:11:40.747Z,15.88
2023-02-14T06:14:07.866Z,17.02
2023-02-14T06:16:35.082Z,15.45
2023-02-14T06:19:02.226Z,14.95
2023-02-14T06:21:29.354Z,14.00
2023-02-14T06:23:56.517Z,17.35
2023-02-14T06:26:27.793Z,14.93
2023-02-14T06:28:56.323Z,15.80
2023-02-14T06:31:24.513Z,16.90
2023-02-14T06:33:52.962Z,15.60
2023-02-14T06:36:20.324Z,14.38
2023-02-14T06:38:48.756Z,15.93
2023-02-14T06:41:17.162Z,14.88
2023-02-14T06:43:45.650Z,15.25
2023-02-14T06:46:12.889Z,15.00
2023-02-14T06:48:40.116Z,15.45
2023-02-14T06:51:07.444Z,15.43
2023-02-14T06:53:34.899Z,15.10
2023-02-14T06:56:02.397Z,14.48
2023-02-14T06:58:29.497Z,14.68
2023-02-14T07:00:57.517Z,14.60
2023-02-14T07:03:28.650Z,13.98
2023-02-14T07:05:57.849Z,15.98
2023-02-14T07:08:26.328Z,16.10
2023-02-14T07:10:58.239Z,17.23
2023-02-14T07:13:25.867Z,16.70
2023-02-14T07:15:53.030Z,15.13
2023-02-14T07:18:20.109Z,15.30
2023-02-14T07:20:47.305Z,14.10
2023-02-14T07:23:14.385Z,14.68
2023-02-14T07:25:41.475Z,15.30
2023-02-14T07:28:08.564Z,14.40
2023-02-14T07:30:35.859Z,14.90
2023-02-14T07:33:03.072Z,15.23
2023-02-14T07:35:30.389Z,16.48
2023-02-14T07:37:57.584Z,16.65
2023-02-14T07:40:25.192Z,15.50
2023-02-14T07:42:54.257Z,16.45
2023-02-14T07:45:22.747Z,17.30
2023-02-14T07:47:51.776Z,15.73
2023-02-14T07:50:19.893Z,15.68
2023-02-14T07:52:47.409Z,13.93
2023-02-14T07:55:14.528Z,14.60
2023-02-14T07:57:41.744Z,13.93
2023-02-14T08:00:09.464Z,12.93
2023-02-14T08:02:39.254Z,14.65
2023-02-14T08:05:07.015Z,15.88
2023-02-14T08:07:34.101Z,15.38
2023-02-14T08:10:01.337Z,15.75
2023-02-14T08:12:46.796Z,15.60
2023-02-14T08:15:32.172Z,15.05
2023-02-14T08:17:59.232Z,16.58
2023-02-14T08:20:26.374Z,17.67
2023-02-14T08:22:53.516Z,18.27
2023-02-14T08:25:20.651Z,19.63
2023-02-14T08:27:47.760Z,22.80
2023-02-14T08:30:15.354Z,24.48
2023-02-14T08:32:42.624Z,25.75
2023-02-14T08:35:09.735Z,23.38
2023-02-14T08:37:36.845Z,27.00
2023-02-14T08:40:04.030Z,27.73
2023-02-14T08:42:31.097Z,30.65
2023-02-14T08:44:58.183Z,31.23
2023-02-14T08:47:25.356Z,35.45
2023-02-14T08:49:52.469Z,36.92
2023-02-14T08:52:19.561Z,39.58
2023-02-14T08:54:46.668Z,39.00
2023-02-14T08:57:15.464Z,40.88
2023-02-14T08:59:42.574Z,43.00
2023-02-14T09:02:13.468Z,48.38
2023-02-14T09:04:40.599Z,43.85
2023-02-14T09:07:07.944Z,44.95
2023-02-14T09:09:34.996Z,44.88
2023-02-14T09:12:07.022Z,43.78
2023-02-14T09:14:38.465Z,43.80
2023-02-14T09:17:06.620Z,46.63
2023-02-14T09:19:34.601Z,49.45
2023-02-14T09:22:03.863Z,47.35
2023-02-14T09:24:32.607Z,48.15
2023-02-14T09:27:00.033Z,46.17
2023-02-14T09:29:28.564Z,45.90
2023-02-14T09:31:58.111Z,43.50
2023-02-14T09:34:26.488Z,44.92
2023-02-14T09:37:12.393Z,45.53
2023-02-14T09:39:39.483Z,47.08
2023-02-14T09:42:21.079Z,46.53
2023-02-14T09:44:54.277Z,48.22
2023-02-14T09:47:47.660Z,53.40
2023-02-14T09:50:47.232Z,48.80
2023-02-14T09:53:35.226Z,47.30
2023-02-14T09:56:26.013Z,47.55
2023-02-14T09:59:15.749Z,47.63
2023-02-14T10:01:49.502Z,50.08
2023-02-14T10:04:32.479Z,50.35
2023-02-14T10:07:32.146Z,48.85
2023-02-14T10:10:16.635Z,50.30
2023-02-14T10:12:52.894Z,48.97
2023-02-14T10:15:34.542Z,48.60
2023-02-14T10:18:16.617Z,49.38
2023-02-14T10:20:51.564Z,47.83
2023-02-14T10:23:32.136Z,46.70
2023-02-14T10:26:18.335Z,48.45
2023-02-14T10:28:49.244Z,44.83
2023-02-14T10:31:23.721Z,46.05
2023-02-14T10:34:07.740Z,45.08
2023-02-14T10:39:53.293Z,42.50
2023-02-14T10:42:55.282Z,41.25
2023-02-14T10:45:39.111Z,40.90
2023-02-14T10:48:28.033Z,43.92
2023-02-14T10:51:13.778Z,40.47
2023-02-14T10:53:46.977Z,42.13
2023-02-14T10:56:27.972Z,39.95
2023-02-14T10:58:57.775Z,40.35
2023-02-14T11:01:25.397Z,36.97
2023-02-14T11:03:58.502Z,37.90
2023-02-14T11:06:25.726Z,38.42
2023-02-14T11:08:52.811Z,37.92
2023-02-14T11:11:41.248Z,35.00
2023-02-14T11:14:32.924Z,37.20
2023-02-14T11:17:17.649Z,39.30
2023-02-14T11:20:20.427Z,36.55
2023-02-14T11:22:47.585Z,35.30
2023-02-14T11:25:27.020Z,39.53
2023-02-14T11:28:07.880Z,37.75
2023-02-14T11:30:46.444Z,38.03
2023-02-14T11:33:30.809Z,38.75
2023-02-14T11:35:58.418Z,37.03
2023-02-14T11:38:30.666Z,39.63
2023-02-14T11:40:59.719Z,36.63
2023-02-14T11:43:38.337Z,39.63
2023-02-14T11:46:20.472Z,38.70
2023-02-14T11:49:02.144Z,39.42
2023-02-14T11:51:35.891Z,38.55
2023-02-14T11:54:05.657Z,38.85
2023-02-14T11:56:49.841Z,39.17
2023-02-14T11:59:29.906Z,38.35
2023-02-14T12:02:01.419Z,38.33
2023-02-14T12:04:38.099Z,39.47
2023-02-14T12:07:19.433Z,39.17
2023-02-14T12:09:48.348Z,39.28
2023-02-14T12:12:23.196Z,38.65
2023-02-14T12:14:50.385Z,38.55
2023-02-14T12:17:35.588Z,39.83
2023-02-14T12:20:15.128Z,38.08
2023-02-14T12:22:58.122Z,38.67
2023-02-14T12:25:34.489Z,36.93
2023-02-14T12:28:09.869Z,36.08
2023-02-14T12:30:37.267Z,40.85
2023-02-14T12:33:18.333Z,41.15
2023-02-14T12:35:54.766Z,42.10
2023-02-14T12:38:41.905Z,40.10
2023-02-14T12:41:17.901Z,41.30
2023-02-14T12:43:52.758Z,43.47
2023-02-14T12:46:38.121Z,42.53
2023-02-14T12:49:26.209Z,42.17
2023-02-14T12:52:34.879Z,39.70
2023-02-14T12:55:24.431Z,38.10
2023-02-14T12:57:56.516Z,39.38
2023-02-14T13:00:32.415Z,41.30
2023-02-14T13:03:29.177Z,42.45
2023-02-14T13:06:08.595Z,42.97
2023-02-14T13:08:51.648Z,41.97
2023-02-14T13:11:41.440Z,43.63
2023-02-14T13:14:22.492Z,42.08
2023-02-14T13:16:57.241Z,40.63
2023-02-14T13:19:40.206Z,44.17
2023-02-14T13:22:13.353Z,42.10
2023-02-14T13:24:48.221Z,42.38
2023-02-14T13:27:37.475Z,42.08
2023-02-14T13:30:32.284Z,41.80
2023-02-14T13:33:07.651Z,42.17
2023-02-14T13:35:35.738Z,43.45
2023-02-14T13:38:08.413Z,42.65
2023-02-14T13:40:35.962Z,43.97
2023-02-14T13:43:03.514Z,42.55
2023-02-14T13:45:34.866Z,42.67
2023-02-14T13:48:20.272Z,40.45
2023-02-14T13:51:01.602Z,41.78
2023-02-14T13:53:37.811Z,43.90
2023-02-14T13:56:32.440Z,38.95
2023-02-14T13:59:05.802Z,40.58
2023-02-14T14:01:50.143Z,39.22
2023-02-14T14:04:26.721Z,41.17
2023-02-14T14:07:02.705Z,40.90
2023-02-14T14:09:41.968Z,42.38
2023-02-14T14:12:38.083Z,41.67
2023-02-14T14:15:05.297Z,40.33
2023-02-14T14:17:37.097Z,41.30
2023-02-14T14:20:27.532Z,38.70
2023-02-14T14:23:00.061Z,39.15
2023-02-14T14:25:37.304Z,39.70
2023-02-14T14:28:19.467Z,39.30
2023-02-14T14:30:47.740Z,37.63
2023-02-14T14:33:30.019Z,39.08
2023-02-14T14:36:06.076Z,39.15
2023-02-14T14:38:45.436Z,38.05
2023-02-14T14:41:12.665Z,38.85
2023-02-14T14:43:40.681Z,39.90
2023-02-14T14:46:10.760Z,37.88
2023-02-14T14:48:37.923Z,40.75
2023-02-14T14:51:07.721Z,38.47
2023-02-14T14:53:57.722Z,39.58
2023-02-14T14:56:28.397Z,36.63
2023-02-14T14:58:55.768Z,36.75
2023-02-14T15:01:38.627Z,37.42
2023-02-14T15:04:35.400Z,38.10
2023-02-14T15:07:19.584Z,40.00
2023-02-14T15:09:47.296Z,36.63
2023-02-14T15:12:38.693Z,39.35
2023-02-14T15:15:09.275Z,36.17
2023-02-14T15:17:37.662Z,37.45
2023-02-14T15:20:10.542Z,37.28
2023-02-14T15:22:41.271Z,38.10
2023-02-14T15:25:18.280Z,38.10
2023-02-14T15:27:46.008Z,37.83
2023-02-14T15:30:19.475Z,36.67
2023-02-14T15:32:49.376Z,37.97
2023-02-14T15:35:19.355Z,38.50
2023-02-14T15:37:47.222Z,37.70
2023-02-14T15:40:19.989Z,37.42
2023-02-14T15:42:48.063Z,35.13
2023-02-14T15:45:22.716Z,36.78
2023-02-14T15:47:53.625Z,37.88
2023-02-14T15:50:27.808Z,35.28
2023-02-14T15:53:02.596Z,34.67
2023-02-14T15:55:30.466Z,34.63
2023-02-14T15:58:08.060Z,38.20
2023-02-14T16:00:35.622Z,37.63
2023-02-14T16:03:11.442Z,36.20
2023-02-14T16:05:38.562Z,37.92
2023-02-14T16:08:22.886Z,37.55
2023-02-14T16:11:05.136Z,35.00
2023-02-14T16:13:35.134Z,36.20
2023-02-14T16:16:07.339Z,36.63
2023-02-14T16:18:43.360Z,37.08
2023-02-14T16:21:15.038Z,37.13
2023-02-14T16:23:44.665Z,34.15
2023-02-14T16:26:12.146Z,35.05
2023-02-14T16:28:41.426Z,37.20
2023-02-14T16:31:15.140Z,37.95
2023-02-14T16:33:42.334Z,35.93
2023-02-14T16:36:24.653Z,38.47
2023-02-14T16:38:52.975Z,34.33
2023-02-14T16:41:23.021Z,34.50
2023-02-14T16:43:50.701Z,33.92
2023-02-14T16:46:21.575Z,36.38
2023-02-14T16:48:52.602Z,34.25
2023-02-14T16:51:23.539Z,36.70
2023-02-14T16:53:50.894Z,35.20
2023-02-14T16:56:26.843Z,38.70
2023-02-14T16:58:54.292Z,40.88
2023-02-14T17:01:21.455Z,38.30
2023-02-14T17:03:48.561Z,37.38
2023-02-14T17:06:20.160Z,40.38
2023-02-14T17:08:51.142Z,34.03
2023-02-14T17:11:18.824Z,38.50
2023-02-14T17:13:47.759Z,39.65
2023-02-14T17:16:16.908Z,38.05
2023-02-14T17:18:47.721Z,37.65
2023-02-14T17:21:16.573Z,38.47
2023-02-14T17:23:43.729Z,38.88
2023-02-14T17:26:11.221Z,35.25
2023-02-14T17:28:38.362Z,36.90
2023-02-14T17:31:06.277Z,38.90
2023-02-14T17:33:33.797Z,41.35
2023-02-14T17:36:11.531Z,39.53
2023-02-14T17:38:40.253Z,39.80
2023-02-14T17:41:22.497Z,38.15
2023-02-14T17:43:50.817Z,39.42
2023-02-14T17:46:20.768Z,32.88
2023-02-14T17:48:49.098Z,39.92
2023-02-14T17:51:17.911Z,41.67
2023-02-14T17:53:45.032Z,39.90
2023-02-14T17:56:25.753Z,38.67
2023-02-14T17:58:55.121Z,40.83
2023-02-14T18:01:25.230Z,43.78
2023-02-14T18:03:54.294Z,44.03
2023-02-14T18:06:21.648Z,42.90
2023-02-14T18:08:50.505Z,38.67
2023-02-14T18:11:19.711Z,39.25
2023-02-14T18:13:47.310Z,43.03
2023-02-14T18:16:16.896Z,46.97
2023-02-14T18:18:44.384Z,41.28
2023-02-14T18:21:14.841Z,47.03
2023-02-14T18:23:42.476Z,41.83
2023-02-14T18:26:15.066Z,43.17
2023-02-14T18:28:42.212Z,40.10
2023-02-14T18:31:14.884Z,40.33
2023-02-14T18:33:42.223Z,40.80
2023-02-14T18:36:12.341Z,40.33
2023-02-14T18:38:41.014Z,45.50
2023-02-14T18:41:11.061Z,50.03
2023-02-14T18:43:40.912Z,41.45
2023-02-14T18:46:22.239Z,38.78
2023-02-14T18:48:50.166Z,38.50
2023-02-14T18:51:32.125Z,38.92
2023-02-14T18:54:04.551Z,41.55
2023-02-14T18:56:35.690Z,41.67
2023-02-14T18:59:06.468Z,44.20
2023-02-14T19:01:39.773Z,44.60
2023-02-14T19:04:08.842Z,41.53
2023-02-14T19:06:36.144Z,39.13
2023-02-14T19:09:07.466Z,39.55
2023-02-14T19:11:34.661Z,40.72
2023-02-14T19:14:08.305Z,42.60
2023-02-14T19:16:38.399Z,48.03
2023-02-14T19:19:05.597Z,70.38
2023-02-14T19:21:34.779Z,56.40
2023-02-14T19:24:06.761Z,48.47
2023-02-14T19:26:39.737Z,49.30
2023-02-14T19:29:10.642Z,42.63
2023-02-14T19:31:41.045Z,47.47
2023-02-14T19:34:23.938Z,54.15
2023-02-14T19:36:52.739Z,45.40
2023-02-14T19:39:21.098Z,45.83
2023-02-14T19:41:49.114Z,47.72
2023-02-14T19:44:17.380Z,45.35
2023-02-14T19:46:46.261Z,44.22
2023-02-14T19:49:19.163Z,41.35
2023-02-14T19:51:48.049Z,46.50
2023-02-14T19:54:15.785Z,48.83
2023-02-14T19:56:46.074Z,44.10
2023-02-14T19:59:19.500Z,43.28
2023-02-14T20:01:51.843Z,44.83
2023-02-14T20:04:25.902Z,47.72
2023-02-14T20:06:53.534Z,44.47
2023-02-14T20:09:21.983Z,42.88
2023-02-14T20:11:50.368Z,42.25
2023-02-14T20:14:20.748Z,45.90
2023-02-14T20:16:48.954Z,44.95
2023-02-14T20:19:18.648Z,45.22
2023-02-14T20:21:48.115Z,46.17
2023-02-14T20:24:25.385Z,45.35
2023-02-14T20:26:53.107Z,42.95
2023-02-14T20:29:21.504Z,47.35
2023-02-14T20:31:50.991Z,46.28
2023-02-14T20:34:19.294Z,45.15
2023-02-14T20:36:53.063Z,46.15
2023-02-14T20:39:21.498Z,49.38
2023-02-14T20:41:50.183Z,45.67
2023-02-14T20:44:22.099Z,45.92
2023-02-14T20:46:52.274Z,47.30
2023-02-14T20:49:23.353Z,44.90
2023-02-14T20:51:51.582Z,44.67
2023-02-14T20:54:20.968Z,42.85
2023-02-14T20:56:50.536Z,42.53
2023-02-14T20:59:19.283Z,40.22
2023-02-14T21:01:46.535Z,44.13
2023-02-14T21:04:14.062Z,44.22
2023-02-14T21:06:41.215Z,44.38
2023-02-14T21:09:08.585Z,44.38
2023-02-14T21:11:35.940Z,41.65
2023-02-14T21:14:03.143Z,42.67
2023-02-14T21:16:30.575Z,41.83
2023-02-14T21:18:59.720Z,40.13
2023-02-14T21:21:33.747Z,41.35
2023-02-14T21:24:03.207Z,43.13
2023-02-14T21:26:30.934Z,39.97
2023-02-14T21:28:58.230Z,41.25
2023-02-14T21:31:25.746Z,41.63
2023-02-14T21:33:55.357Z,43.60
2023-02-14T21:36:24.567Z,41.17
2023-02-14T21:38:51.703Z,37.38
2023-02-14T21:41:21.547Z,38.35
2023-02-14T21:43:52.413Z,37.05
2023-02-14T21:46:27.068Z,38.72
2023-02-14T21:49:14.345Z,37.85
2023-02-14T21:51:42.232Z,40.58
2023-02-14T21:54:09.982Z,39.00
2023-02-14T21:56:37.969Z,37.05
2023-02-14T21:59:05.274Z,39.35
2023-02-14T22:01:34.709Z,39.45
2023-02-14T22:04:02.626Z,39.25
2023-02-14T22:06:29.803Z,38.03
2023-02-14T22:08:58.861Z,36.90
2023-02-14T22:11:28.087Z,37.17
2023-02-14T22:13:55.863Z,37.55
2023-02-14T22:16:23.738Z,37.50
2023-02-14T22:18:51.697Z,39.47
2023-02-14T22:21:22.289Z,39.40
2023-02-14T22:23:50.033Z,38.72
2023-02-14T22:26:21.495Z,35.85
2023-02-14T22:28:50.362Z,38.42
2023-02-14T22:31:18.431Z,39.13
2023-02-14T22:33:46.798Z,36.50
2023-02-14T22:36:14.031Z,37.20
2023-02-14T22:38:41.324Z,37.60
2023-02-14T22:41:16.812Z,39.42
2023-02-14T22:43:44.419Z,39.55
2023-02-14T22:46:17.205Z,38.10
2023-02-14T22:48:44.603Z,39.03
2023-02-14T22:51:27.962Z,39.55
2023-02-14T22:54:00.522Z,39.67
2023-02-14T22:56:36.909Z,39.88
2023-02-14T22:59:07.006Z,37.55
2023-02-14T23:01:35.728Z,37.47
2023-02-14T23:04:04.169Z,37.70
2023-02-14T23:06:33.268Z,36.50
2023-02-14T23:09:02.131Z,37.92
2023-02-14T23:11:31.607Z,36.38
2023-02-14T23:14:18.066Z,38.35
2023-02-14T23:17:03.874Z,35.42
2023-02-14T23:19:52.438Z,37.28
2023-02-14T23:22:28.352Z,38.10
2023-02-14T23:24:57.791Z,35.35
2023-02-14T23:27:30.740Z,35.47
2023-02-14T23:29:58.037Z,35.97
2023-02-14T23:32:25.112Z,38.15
2023-02-14T23:34:52.298Z,35.45
2023-02-14T23:37:19.827Z,37.30
2023-02-14T23:39:46.973Z,35.88
2023-02-14T23:42:15.977Z,39.08
2023-02-14T23:44:44.776Z,37.67
2023-02-14T23:47:13.125Z,37.22
2023-02-14T23:49:41.780Z,36.20
2023-02-14T23:52:11.436Z,37.30
2023-02-14T23:54:39.665Z,36.58
2023-02-14T23:57:07.358Z,35.22
2023-02-14T23:59:34.532Z,34.28
